Disclaimer

Please do not use the information listed here in-flight or in-navigation, as they are not provided to us by the airports but are provided by volunteers, so they might be outdated.

Search


Regions


Airport information page

Radio informations:
Tower (TWR) - 118.5 MHz
HANDLING - 121.6 MHz
Approach (APP) - 124.2 MHz

Airport informations:
Latitude: 54° 57' 50.11" N
Longitude: 024° 05' 05.20" E
Elevation: 256 feet - 78 meters
Operating hours: Remarks
Operating agency: Civil government, landing fees and diplomatic clearance may be required
Timezone: UTC+2(+3DT) - Last Sunday in March to last Sunday in October
Fuel: Jet A1, without icing nhibitor.

Aviation Gasoline (AVGAS), octane unknown.

Runway information:
08/26 - 10335 x 148 feet< - >3150 x 45 meters

Recent METARs:
EYKA 160550Z 10005KT 050V120 9999 OVC016 01/M01 Q1041 R08/190095
EYKA 160620Z 10005KT 9999 OVC016 01/M01 Q1041 R08/190095
EYKA 160650Z 09005KT 070V130 9999 OVC014 01/M01 Q1042 R08/190095

Airport on the map: